createdAt,value
2023-05-06T00:02:21.884Z,12.86
2023-05-06T00:04:49.607Z,12.82
2023-05-06T00:07:18.630Z,12.95
2023-05-06T00:09:46.375Z,13.00
2023-05-06T00:12:13.964Z,13.03
2023-05-06T00:14:41.752Z,13.07
2023-05-06T00:17:10.611Z,13.03
2023-05-06T00:19:38.965Z,13.05
2023-05-06T00:22:06.660Z,13.01
2023-05-06T00:24:35.974Z,13.08
2023-05-06T00:27:03.856Z,13.05
2023-05-06T00:29:31.526Z,13.02
2023-05-06T00:31:59.572Z,13.08
2023-05-06T00:34:27.450Z,13.04
2023-05-06T00:36:55.142Z,13.05
2023-05-06T00:39:22.809Z,12.97
2023-05-06T00:41:52.694Z,12.95
2023-05-06T00:44:20.343Z,13.05
2023-05-06T00:46:48.151Z,12.95
2023-05-06T00:49:16.069Z,12.92
2023-05-06T00:51:43.828Z,12.91
2023-05-06T00:54:12.027Z,12.92
2023-05-06T00:56:40.237Z,12.89
2023-05-06T00:59:09.282Z,12.75
2023-05-06T01:01:37.658Z,12.84
2023-05-06T01:04:07.976Z,12.83
2023-05-06T01:06:43.376Z,12.81
2023-05-06T01:09:20.494Z,12.85
2023-05-06T01:11:52.088Z,12.84
2023-05-06T01:14:30.157Z,12.88
2023-05-06T01:17:04.455Z,12.87
2023-05-06T01:19:41.900Z,12.86
2023-05-06T01:22:11.679Z,12.84
2023-05-06T01:24:41.949Z,12.88
2023-05-06T01:27:10.853Z,12.71
2023-05-06T01:29:40.482Z,12.77
2023-05-06T01:32:37.329Z,12.88
2023-05-06T01:35:16.549Z,12.73
2023-05-06T01:37:48.967Z,12.98
2023-05-06T01:40:18.941Z,12.95
2023-05-06T01:42:49.233Z,12.93
2023-05-06T01:45:19.400Z,12.91
2023-05-06T01:47:48.068Z,12.87
2023-05-06T01:50:16.568Z,12.90
2023-05-06T01:52:44.241Z,12.70
2023-05-06T01:55:12.129Z,12.78
2023-05-06T01:57:41.165Z,12.76
2023-05-06T02:00:10.206Z,12.74
2023-05-06T02:02:38.064Z,12.81
2023-05-06T02:05:06.737Z,12.76
2023-05-06T02:07:34.599Z,12.79
2023-05-06T02:10:02.340Z,12.73
2023-05-06T02:12:30.066Z,12.76
2023-05-06T02:14:59.500Z,12.83
2023-05-06T02:17:27.335Z,12.76
2023-05-06T02:19:55.115Z,12.72
2023-05-06T02:22:22.794Z,12.75
2023-05-06T02:24:50.480Z,12.78
2023-05-06T02:27:18.172Z,12.72
2023-05-06T02:29:46.098Z,12.67
2023-05-06T02:32:15.095Z,12.70
2023-05-06T02:34:42.826Z,12.75
2023-05-06T02:37:10.841Z,12.67
2023-05-06T02:39:38.549Z,12.72
2023-05-06T02:42:07.120Z,12.74
2023-05-06T02:44:34.808Z,12.68
2023-05-06T02:47:02.422Z,12.66
2023-05-06T02:49:31.405Z,12.61
2023-05-06T02:51:59.161Z,12.54
2023-05-06T02:54:27.615Z,12.47
2023-05-06T02:56:55.371Z,12.48
2023-05-06T02:59:23.183Z,12.42
2023-05-06T03:01:50.874Z,12.43
2023-05-06T03:04:18.520Z,12.39
2023-05-06T03:06:47.563Z,12.32
2023-05-06T03:09:15.845Z,12.38
2023-05-06T03:11:43.746Z,12.31
2023-05-06T03:14:11.403Z,12.25
2023-05-06T03:16:39.376Z,12.37
2023-05-06T03:19:07.141Z,12.32
2023-05-06T03:21:34.865Z,12.28
2023-05-06T03:24:04.278Z,12.35
2023-05-06T03:26:31.995Z,12.34
2023-05-06T03:28:59.650Z,12.40
2023-05-06T03:31:27.409Z,12.33
2023-05-06T03:33:55.147Z,12.09
2023-05-06T03:36:23.845Z,12.11
2023-05-06T03:38:51.428Z,11.98
2023-05-06T03:41:21.499Z,11.93
2023-05-06T03:43:49.152Z,11.92
2023-05-06T03:46:16.987Z,11.80
2023-05-06T03:48:44.649Z,11.91
2023-05-06T03:51:12.472Z,11.95
2023-05-06T03:53:40.219Z,11.83
2023-05-06T03:56:08.660Z,11.70
2023-05-06T03:58:37.814Z,11.72
2023-05-06T04:01:05.881Z,11.83
2023-05-06T04:03:33.873Z,11.83
2023-05-06T04:06:01.724Z,11.82
2023-05-06T04:08:29.347Z,11.78
2023-05-06T04:10:57.054Z,11.75
2023-05-06T04:13:24.800Z,11.86
2023-05-06T04:15:54.199Z,11.94
2023-05-06T04:18:22.253Z,12.10
2023-05-06T04:20:50.270Z,12.06
2023-05-06T04:23:18.203Z,12.16
2023-05-06T04:25:48.613Z,12.29
2023-05-06T04:28:17.613Z,12.31
2023-05-06T04:30:45.474Z,12.32
2023-05-06T04:33:14.685Z,12.45
2023-05-06T04:35:42.743Z,12.54
2023-05-06T04:38:10.400Z,12.47
2023-05-06T04:40:40.631Z,12.24
2023-05-06T04:43:08.277Z,12.39
2023-05-06T04:45:37.776Z,12.30
2023-05-06T04:48:06.242Z,12.40
2023-05-06T04:50:35.329Z,12.16
2023-05-06T04:53:03.102Z,12.07
2023-05-06T04:55:30.838Z,12.26
2023-05-06T04:57:58.599Z,12.33
2023-05-06T05:00:27.511Z,12.51
2023-05-06T05:02:55.264Z,12.45
2023-05-06T05:05:23.045Z,12.49
2023-05-06T05:07:52.212Z,12.53
2023-05-06T05:10:20.164Z,12.72
2023-05-06T05:12:47.872Z,12.80
2023-05-06T05:15:15.659Z,12.97
2023-05-06T05:17:43.368Z,13.19
2023-05-06T05:20:11.917Z,13.01
2023-05-06T05:22:39.789Z,13.24
2023-05-06T05:25:09.857Z,13.28
2023-05-06T05:27:37.906Z,13.36
2023-05-06T05:30:07.357Z,13.67
2023-05-06T05:32:35.054Z,13.76
2023-05-06T05:35:02.722Z,13.74
2023-05-06T05:37:31.244Z,13.95
2023-05-06T05:39:58.974Z,14.12
2023-05-06T05:42:28.081Z,14.19
2023-05-06T05:44:55.766Z,14.15
2023-05-06T05:47:49.177Z,14.41
2023-05-06T05:50:16.937Z,14.50
2023-05-06T05:52:44.614Z,14.74
2023-05-06T05:55:12.453Z,14.86
2023-05-06T05:57:41.436Z,14.55
2023-05-06T06:00:12.829Z,14.87
2023-05-06T06:02:41.424Z,15.04
2023-05-06T06:05:09.810Z,15.37
2023-05-06T06:07:37.726Z,15.94
2023-05-06T06:10:06.318Z,16.25
2023-05-06T06:12:34.091Z,16.19
2023-05-06T06:15:03.271Z,16.48
2023-05-06T06:17:31.092Z,16.87
2023-05-06T06:19:59.219Z,16.78
2023-05-06T06:22:27.209Z,16.75
2023-05-06T06:24:54.931Z,16.76
2023-05-06T06:27:22.519Z,17.62
2023-05-06T06:29:50.390Z,17.50
2023-05-06T06:32:19.517Z,17.41
2023-05-06T06:34:47.250Z,17.19
2023-05-06T06:37:14.868Z,17.34
2023-05-06T06:39:42.466Z,17.48
2023-05-06T06:42:10.149Z,17.38
2023-05-06T06:44:37.996Z,17.27
2023-05-06T06:47:05.708Z,17.41
2023-05-06T06:49:37.258Z,17.34
2023-05-06T06:52:05.995Z,17.13
2023-05-06T06:54:33.728Z,17.26
2023-05-06T06:57:01.552Z,17.65
2023-05-06T06:59:29.271Z,17.93
2023-05-06T07:01:56.960Z,17.98
2023-05-06T07:04:25.685Z,18.53
2023-05-06T07:06:54.812Z,18.80
2023-05-06T07:09:22.577Z,19.06
2023-05-06T07:11:50.266Z,19.43
2023-05-06T07:14:18.017Z,19.80
2023-05-06T07:16:47.165Z,20.23
2023-05-06T07:19:15.864Z,21.00
2023-05-06T07:21:43.511Z,21.29
2023-05-06T07:24:12.881Z,21.46
2023-05-06T07:26:40.672Z,21.44
2023-05-06T07:29:08.391Z,21.73
2023-05-06T07:31:36.589Z,21.86
2023-05-06T07:34:04.375Z,21.08
2023-05-06T07:36:36.124Z,21.28
2023-05-06T07:39:05.083Z,21.41
2023-05-06T07:41:34.140Z,21.41
2023-05-06T07:44:02.109Z,21.13
2023-05-06T07:46:30.002Z,21.12
2023-05-06T07:48:57.763Z,21.30
2023-05-06T07:51:25.548Z,20.88
2023-05-06T07:53:53.160Z,21.32
2023-05-06T07:56:20.882Z,21.46
2023-05-06T07:58:50.222Z,21.44
2023-05-06T08:01:17.931Z,21.28
2023-05-06T08:03:45.705Z,20.87
2023-05-06T08:06:13.555Z,21.60
2023-05-06T08:08:41.258Z,21.39
2023-05-06T08:11:09.016Z,21.20
2023-05-06T08:13:36.651Z,21.89
2023-05-06T08:16:06.853Z,22.40
2023-05-06T08:18:34.771Z,22.23
2023-05-06T08:21:02.643Z,22.06
2023-05-06T08:23:30.431Z,21.83
2023-05-06T08:25:59.042Z,21.99
2023-05-06T08:28:26.846Z,22.13
2023-05-06T08:30:54.535Z,21.94
2023-05-06T08:33:23.691Z,21.99
2023-05-06T08:35:51.423Z,22.16
2023-05-06T08:38:19.096Z,22.00
2023-05-06T08:40:46.763Z,21.56
2023-05-06T08:43:15.468Z,21.83
2023-05-06T08:45:43.392Z,21.45
2023-05-06T08:48:11.305Z,21.34
2023-05-06T08:50:43.158Z,20.86
2023-05-06T08:53:12.603Z,20.68
2023-05-06T08:55:41.980Z,20.04
2023-05-06T08:58:12.069Z,19.88
2023-05-06T09:00:40.360Z,20.03
2023-05-06T09:03:08.098Z,19.83
2023-05-06T09:05:35.858Z,20.43
2023-05-06T09:08:05.142Z,20.50
2023-05-06T09:10:33.661Z,20.15
2023-05-06T09:13:01.340Z,19.81
2023-05-06T09:15:40.344Z,19.90
2023-05-06T09:18:08.258Z,19.83
2023-05-06T09:20:36.196Z,19.56
2023-05-06T09:23:05.754Z,19.73
2023-05-06T09:25:33.960Z,19.47
2023-05-06T09:28:05.996Z,19.73
2023-05-06T09:30:33.951Z,19.47
2023-05-06T09:33:04.940Z,19.75
2023-05-06T09:35:38.322Z,19.74
2023-05-06T09:38:08.301Z,19.79
2023-05-06T09:40:36.671Z,19.94
2023-05-06T09:43:04.671Z,20.49
2023-05-06T09:45:32.997Z,20.36
2023-05-06T09:48:02.103Z,20.90
2023-05-06T09:50:29.840Z,20.39
2023-05-06T09:52:57.719Z,20.79
2023-05-06T09:55:28.167Z,20.59
2023-05-06T09:57:56.255Z,20.43
2023-05-06T10:00:28.256Z,20.73
2023-05-06T10:02:56.927Z,21.23
2023-05-06T10:05:26.090Z,21.85
2023-05-06T10:07:56.164Z,22.08
2023-05-06T10:10:28.040Z,22.12
2023-05-06T10:12:56.683Z,21.65
2023-05-06T10:15:27.373Z,21.64
2023-05-06T10:17:56.440Z,21.48
2023-05-06T10:20:25.429Z,21.31
2023-05-06T10:23:02.341Z,20.96
2023-05-06T10:25:39.615Z,20.69
2023-05-06T10:28:11.154Z,21.41
2023-05-06T10:30:48.506Z,21.89
2023-05-06T10:33:17.082Z,21.94
2023-05-06T10:35:54.275Z,22.65
2023-05-06T10:38:25.960Z,22.36
2023-05-06T10:40:56.105Z,21.93
2023-05-06T10:43:25.674Z,22.06
2023-05-06T10:46:01.440Z,22.10
2023-05-06T10:48:29.353Z,21.71
2023-05-06T10:51:31.544Z,22.22
2023-05-06T10:54:02.312Z,22.55
2023-05-06T10:56:33.164Z,22.51
2023-05-06T10:59:08.080Z,22.03
2023-05-06T11:01:36.434Z,22.32
2023-05-06T11:04:09.500Z,21.96
2023-05-06T11:06:41.089Z,22.16
2023-05-06T11:09:17.283Z,22.95
2023-05-06T11:11:54.722Z,23.46
2023-05-06T11:14:30.154Z,23.08
2023-05-06T11:16:59.181Z,23.35
2023-05-06T11:19:28.556Z,23.24
2023-05-06T11:21:58.201Z,23.18
2023-05-06T11:24:28.541Z,22.97
2023-05-06T11:26:58.792Z,22.90
2023-05-06T11:29:27.732Z,23.02
2023-05-06T11:31:55.452Z,22.94
2023-05-06T11:34:25.925Z,23.20
2023-05-06T11:36:58.593Z,22.97
2023-05-06T11:39:30.306Z,22.89
2023-05-06T11:42:03.859Z,22.88
2023-05-06T11:44:33.398Z,22.64
2023-05-06T11:47:03.073Z,22.47
2023-05-06T11:49:31.490Z,22.94
2023-05-06T11:51:59.173Z,22.91
2023-05-06T11:54:28.153Z,23.14
2023-05-06T11:56:57.280Z,22.87
2023-05-06T11:59:31.544Z,23.08
2023-05-06T12:02:01.155Z,23.28
2023-05-06T12:04:29.107Z,22.50
2023-05-06T12:06:57.411Z,22.73
2023-05-06T12:09:25.969Z,22.08
2023-05-06T12:11:54.957Z,21.94
2023-05-06T12:14:23.012Z,22.38
2023-05-06T12:16:54.097Z,22.26
2023-05-06T12:19:23.803Z,22.13
2023-05-06T12:21:51.440Z,22.57
2023-05-06T12:24:28.086Z,23.08
2023-05-06T12:26:56.110Z,22.96
2023-05-06T12:29:23.849Z,23.10
2023-05-06T12:32:08.928Z,22.87
2023-05-06T12:34:40.467Z,23.52
2023-05-06T12:37:09.371Z,23.62
2023-05-06T12:39:38.620Z,22.97
2023-05-06T12:42:07.292Z,23.93
2023-05-06T12:44:37.394Z,24.21
2023-05-06T12:47:08.428Z,23.74
2023-05-06T12:49:49.952Z,23.85
2023-05-06T12:52:18.541Z,24.13
2023-05-06T12:54:46.853Z,24.46
2023-05-06T12:57:15.251Z,24.73
2023-05-06T12:59:44.536Z,24.60
2023-05-06T13:02:14.335Z,24.64
2023-05-06T13:04:42.532Z,24.35
2023-05-06T13:07:10.249Z,24.56
2023-05-06T13:09:37.916Z,24.83
2023-05-06T13:12:06.283Z,24.60
2023-05-06T13:14:34.070Z,24.79
2023-05-06T13:17:04.655Z,25.08
2023-05-06T13:19:33.983Z,24.98
2023-05-06T13:22:02.167Z,25.04
2023-05-06T13:24:29.905Z,24.80
2023-05-06T13:26:59.381Z,24.99
2023-05-06T13:29:27.642Z,25.27
2023-05-06T13:31:56.434Z,25.25
2023-05-06T13:34:24.192Z,25.04
2023-05-06T13:36:54.842Z,25.51
2023-05-06T13:39:22.659Z,25.78
2023-05-06T13:41:51.081Z,25.67
2023-05-06T13:44:19.080Z,25.59
2023-05-06T13:46:47.201Z,25.38
2023-05-06T13:49:15.978Z,25.49
2023-05-06T13:51:43.893Z,24.97
2023-05-06T13:54:13.007Z,25.42
2023-05-06T13:56:40.969Z,24.84
2023-05-06T13:59:10.004Z,25.39
2023-05-06T14:01:38.246Z,25.66
2023-05-06T14:04:06.349Z,25.86
2023-05-06T14:06:34.031Z,25.40
2023-05-06T14:09:01.761Z,25.10
2023-05-06T14:11:30.987Z,25.54
2023-05-06T14:13:58.721Z,25.54
2023-05-06T14:16:26.377Z,26.36
2023-05-06T14:18:54.178Z,26.33
2023-05-06T14:21:22.245Z,26.05
2023-05-06T14:23:49.872Z,25.92
2023-05-06T14:26:17.533Z,25.12
2023-05-06T14:28:46.551Z,25.36
2023-05-06T14:31:14.278Z,24.97
2023-05-06T14:33:42.317Z,24.80
2023-05-06T14:36:10.490Z,24.90
2023-05-06T14:38:38.434Z,25.12
2023-05-06T14:41:06.522Z,25.06
2023-05-06T14:43:34.564Z,25.31
2023-05-06T14:46:03.671Z,25.09
2023-05-06T14:48:31.946Z,25.00
2023-05-06T14:51:00.818Z,24.23
2023-05-06T14:53:28.490Z,23.58
2023-05-06T14:55:56.381Z,23.72
2023-05-06T14:58:24.437Z,24.15
2023-05-06T15:00:52.356Z,24.24
2023-05-06T15:03:21.684Z,24.17
2023-05-06T15:05:50.717Z,24.06
2023-05-06T15:08:18.502Z,24.25
2023-05-06T15:10:46.167Z,24.59
2023-05-06T15:13:13.868Z,24.59
2023-05-06T15:15:41.675Z,23.92
2023-05-06T15:18:09.545Z,24.20
2023-05-06T15:20:38.847Z,23.90
2023-05-06T15:23:06.559Z,23.96
2023-05-06T15:25:36.087Z,23.88
2023-05-06T15:28:05.558Z,23.93
2023-05-06T15:30:33.392Z,23.83
2023-05-06T15:33:02.697Z,24.07
2023-05-06T15:35:31.628Z,23.89
2023-05-06T15:38:00.680Z,23.73
2023-05-06T15:40:28.467Z,23.68
2023-05-06T15:42:56.784Z,23.71
2023-05-06T15:45:24.630Z,23.64
2023-05-06T15:47:52.706Z,23.95
2023-05-06T15:50:32.756Z,24.09
2023-05-06T15:53:03.130Z,24.02
2023-05-06T15:55:35.116Z,23.71
2023-05-06T15:58:09.053Z,23.52
2023-05-06T16:00:36.676Z,23.37
2023-05-06T16:03:04.439Z,23.61
2023-05-06T16:05:32.785Z,23.90
2023-05-06T16:08:01.924Z,23.98
2023-05-06T16:10:29.549Z,23.83
2023-05-06T16:12:57.336Z,24.00
2023-05-06T16:15:25.091Z,23.97
2023-05-06T16:17:53.111Z,24.13
2023-05-06T16:20:20.893Z,24.08
2023-05-06T16:22:50.942Z,23.77
2023-05-06T16:25:20.124Z,24.03
2023-05-06T16:27:47.892Z,24.12
2023-05-06T16:30:15.940Z,23.66
2023-05-06T16:32:43.830Z,23.71
2023-05-06T16:35:11.676Z,23.60
2023-05-06T16:37:39.389Z,23.67
2023-05-06T16:40:09.556Z,23.63
2023-05-06T16:42:39.285Z,23.52
2023-05-06T16:45:08.456Z,23.46
2023-05-06T16:47:36.491Z,23.53
2023-05-06T16:50:06.552Z,23.61
2023-05-06T16:52:34.288Z,22.92
2023-05-06T16:55:01.970Z,23.05
2023-05-06T16:57:29.868Z,23.16
2023-05-06T16:59:59.162Z,22.84
2023-05-06T17:02:27.022Z,22.69
2023-05-06T17:04:54.916Z,22.79
2023-05-06T17:07:22.554Z,22.60
2023-05-06T17:09:50.389Z,22.68
2023-05-06T17:12:18.015Z,22.34
2023-05-06T17:14:45.718Z,22.55
2023-05-06T17:17:14.763Z,22.19
2023-05-06T17:19:42.513Z,22.43
2023-05-06T17:22:10.946Z,22.29
2023-05-06T17:24:38.642Z,22.16
2023-05-06T17:27:06.349Z,22.28
2023-05-06T17:29:34.038Z,21.93
2023-05-06T17:32:01.805Z,21.79
2023-05-06T17:34:31.871Z,21.89
2023-05-06T17:37:01.112Z,22.34
2023-05-06T17:39:30.851Z,22.37
2023-05-06T17:41:58.478Z,22.38
2023-05-06T17:44:26.455Z,22.26
2023-05-06T17:46:54.477Z,22.21
2023-05-06T17:49:22.271Z,21.56
2023-05-06T17:51:51.312Z,21.95
2023-05-06T17:54:19.087Z,22.09
2023-05-06T17:56:50.381Z,21.99
2023-05-06T17:59:19.766Z,21.83
2023-05-06T18:01:48.192Z,21.69
2023-05-06T18:04:16.315Z,21.71
2023-05-06T18:06:45.250Z,21.50
2023-05-06T18:09:14.873Z,21.39
2023-05-06T18:11:42.539Z,21.34
2023-05-06T18:14:10.228Z,21.62
2023-05-06T18:16:38.466Z,21.54
2023-05-06T18:19:06.190Z,21.59
2023-05-06T18:21:36.000Z,21.76
2023-05-06T18:24:15.319Z,21.45
2023-05-06T18:26:46.326Z,21.46
2023-05-06T18:29:14.326Z,21.34
2023-05-06T18:31:42.424Z,21.00
2023-05-06T18:34:10.573Z,20.85
2023-05-06T18:36:38.387Z,20.38
2023-05-06T18:39:06.152Z,21.03
2023-05-06T18:41:34.111Z,21.04
2023-05-06T18:44:05.081Z,20.73
2023-05-06T18:46:33.753Z,20.53
2023-05-06T18:49:01.914Z,20.52
2023-05-06T18:51:30.005Z,20.43
2023-05-06T18:53:58.048Z,20.26
2023-05-06T18:56:26.056Z,20.04
2023-05-06T18:58:54.060Z,19.90
2023-05-06T19:01:23.287Z,19.67
2023-05-06T19:03:51.828Z,19.46
2023-05-06T19:06:19.948Z,19.40
2023-05-06T19:08:47.681Z,19.19
2023-05-06T19:11:16.687Z,18.82
2023-05-06T19:13:45.018Z,18.83
2023-05-06T19:16:13.101Z,18.86
2023-05-06T19:18:42.406Z,18.73
2023-05-06T19:21:11.114Z,18.58
2023-05-06T19:23:39.110Z,18.34
2023-05-06T19:26:07.146Z,18.30
2023-05-06T19:28:35.331Z,17.95
2023-05-06T19:31:09.436Z,18.06
2023-05-06T19:33:37.558Z,17.82
2023-05-06T19:36:08.106Z,17.96
2023-05-06T19:38:36.146Z,17.95
2023-05-06T19:41:04.369Z,17.65
2023-05-06T19:43:32.334Z,17.59
2023-05-06T19:46:00.190Z,17.59
2023-05-06T19:48:28.012Z,17.53
2023-05-06T19:50:55.755Z,17.36
2023-05-06T19:53:25.563Z,17.35
2023-05-06T19:55:55.991Z,17.29
2023-05-06T19:58:24.246Z,17.17
2023-05-06T20:00:52.120Z,16.93
2023-05-06T20:03:20.166Z,16.86
2023-05-06T20:05:47.952Z,16.79
2023-05-06T20:08:15.734Z,16.74
2023-05-06T20:10:44.854Z,16.71
2023-05-06T20:13:12.820Z,16.63
2023-05-06T20:15:41.541Z,16.57
2023-05-06T20:18:09.518Z,16.44
2023-05-06T20:20:37.859Z,16.39
2023-05-06T20:23:05.984Z,16.37
2023-05-06T20:25:36.323Z,16.40
2023-05-06T20:28:08.766Z,16.23
2023-05-06T20:30:37.726Z,16.18
2023-05-06T20:33:05.645Z,16.22
2023-05-06T20:35:38.137Z,16.16
2023-05-06T20:38:06.667Z,16.04
2023-05-06T20:40:35.743Z,16.15
2023-05-06T20:43:07.637Z,16.02
2023-05-06T20:45:38.532Z,16.01
2023-05-06T20:48:07.188Z,15.99
2023-05-06T20:50:35.166Z,15.87
2023-05-06T20:53:03.048Z,15.73
2023-05-06T20:55:31.028Z,15.70
2023-05-06T20:57:58.962Z,15.70
2023-05-06T21:00:28.989Z,15.64
2023-05-06T21:02:57.474Z,15.54
2023-05-06T21:05:26.082Z,15.58
2023-05-06T21:07:53.899Z,15.52
2023-05-06T21:10:21.722Z,15.57
2023-05-06T21:12:51.136Z,15.58
2023-05-06T21:15:19.991Z,15.47
2023-05-06T21:17:50.178Z,15.39
2023-05-06T21:20:19.386Z,15.44
2023-05-06T21:22:47.124Z,15.32
2023-05-06T21:25:14.877Z,15.19
2023-05-06T21:27:42.735Z,15.20
2023-05-06T21:30:11.221Z,15.05
2023-05-06T21:32:39.125Z,15.01
2023-05-06T21:35:09.513Z,15.12
2023-05-06T21:37:37.386Z,15.09
2023-05-06T21:40:06.120Z,14.90
2023-05-06T21:42:34.053Z,14.93
2023-05-06T21:45:01.888Z,14.85
2023-05-06T21:47:29.722Z,14.83
2023-05-06T21:49:57.663Z,14.75
2023-05-06T21:52:26.897Z,14.72
2023-05-06T21:54:54.750Z,14.74
2023-05-06T21:57:22.469Z,14.68
2023-05-06T21:59:50.399Z,14.74
2023-05-06T22:02:18.123Z,14.78
2023-05-06T22:04:46.301Z,14.63
2023-05-06T22:07:14.116Z,14.65
2023-05-06T22:09:43.433Z,14.64
2023-05-06T22:12:12.644Z,14.47
2023-05-06T22:14:41.461Z,14.43
2023-05-06T22:17:10.589Z,14.49
2023-05-06T22:19:38.597Z,14.43
2023-05-06T22:22:06.943Z,14.41
2023-05-06T22:24:34.910Z,14.52
2023-05-06T22:27:04.271Z,14.51
2023-05-06T22:29:34.821Z,14.40
2023-05-06T22:32:02.658Z,14.49
2023-05-06T22:34:30.389Z,14.45
2023-05-06T22:37:00.455Z,14.25
2023-05-06T22:39:28.823Z,14.25
2023-05-06T22:41:57.156Z,14.21
2023-05-06T22:44:26.173Z,14.18
2023-05-06T22:46:54.851Z,14.00
2023-05-06T22:49:23.395Z,14.13
2023-05-06T22:51:51.158Z,14.19
2023-05-06T22:54:19.329Z,14.22
2023-05-06T22:56:47.080Z,14.09
2023-05-06T22:59:14.772Z,14.08
2023-05-06T23:01:43.882Z,14.10
2023-05-06T23:04:11.914Z,14.12
2023-05-06T23:06:40.226Z,14.19
2023-05-06T23:09:07.963Z,13.99
2023-05-06T23:11:35.765Z,13.88
2023-05-06T23:14:04.049Z,13.87
2023-05-06T23:16:31.791Z,14.02
2023-05-06T23:19:00.818Z,13.93
2023-05-06T23:21:28.514Z,13.96
2023-05-06T23:23:56.576Z,13.95
2023-05-06T23:26:24.577Z,13.92
2023-05-06T23:28:52.396Z,13.94
2023-05-06T23:31:20.131Z,13.99
2023-05-06T23:33:47.856Z,14.00
2023-05-06T23:36:17.018Z,13.94
2023-05-06T23:38:44.808Z,13.92
2023-05-06T23:41:13.119Z,13.94
2023-05-06T23:43:40.867Z,13.97
2023-05-06T23:46:08.805Z,13.86
2023-05-06T23:48:38.170Z,13.85
2023-05-06T23:51:06.057Z,13.91
2023-05-06T23:53:36.070Z,13.76
2023-05-06T23:56:04.361Z,13.76
2023-05-06T23:58:32.303Z,13.61
